sensor_id;sensor_type;location;lat;lon;timestamp;P1;durP1;ratioP1;P2;durP2;ratioP2
1412;SDS011;701;52.526;13.408;2023-04-08T00:01:02;16.70;;;9.15;;
1412;SDS011;701;52.526;13.408;2023-04-08T00:03:27;19.75;;;9.23;;
1412;SDS011;701;52.526;13.408;2023-04-08T00:05:53;20.73;;;9.88;;
1412;SDS011;701;52.526;13.408;2023-04-08T00:08:19;19.63;;;9.77;;
1412;SDS011;701;52.526;13.408;2023-04-08T00:10:45;20.55;;;10.10;;
1412;SDS011;701;52.526;13.408;2023-04-08T00:13:11;19.03;;;10.10;;
1412;SDS011;701;52.526;13.408;2023-04-08T00:15:37;20.05;;;10.32;;
1412;SDS011;701;52.526;13.408;2023-04-08T00:18:03;21.33;;;9.95;;
1412;SDS011;701;52.526;13.408;2023-04-08T00:20:28;21.40;;;10.10;;
1412;SDS011;701;52.526;13.408;2023-04-08T00:22:54;21.42;;;10.60;;
1412;SDS011;701;52.526;13.408;2023-04-08T00:25:20;21.80;;;11.23;;
1412;SDS011;701;52.526;13.408;2023-04-08T00:27:46;23.00;;;10.77;;
1412;SDS011;701;52.526;13.408;2023-04-08T00:30:11;24.07;;;11.13;;
1412;SDS011;701;52.526;13.408;2023-04-08T00:32:37;24.48;;;11.32;;
1412;SDS011;701;52.526;13.408;2023-04-08T00:35:03;21.87;;;11.37;;
1412;SDS011;701;52.526;13.408;2023-04-08T00:37:29;26.98;;;11.90;;
1412;SDS011;701;52.526;13.408;2023-04-08T00:39:56;24.92;;;10.98;;
1412;SDS011;701;52.526;13.408;2023-04-08T00:42:21;28.47;;;12.33;;
1412;SDS011;701;52.526;13.408;2023-04-08T00:44:47;24.08;;;11.23;;
1412;SDS011;701;52.526;13.408;2023-04-08T00:47:13;26.60;;;12.50;;
1412;SDS011;701;52.526;13.408;2023-04-08T00:49:40;26.38;;;12.13;;
1412;SDS011;701;52.526;13.408;2023-04-08T00:52:07;26.83;;;13.13;;
1412;SDS011;701;52.526;13.408;2023-04-08T00:54:32;26.10;;;11.87;;
1412;SDS011;701;52.526;13.408;2023-04-08T00:57:00;28.38;;;12.73;;
1412;SDS011;701;52.526;13.408;2023-04-08T00:59:27;27.40;;;12.55;;
1412;SDS011;701;52.526;13.408;2023-04-08T01:01:56;29.20;;;12.65;;
1412;SDS011;701;52.526;13.408;2023-04-08T01:04:55;28.90;;;12.85;;
1412;SDS011;701;52.526;13.408;2023-04-08T01:07:45;28.87;;;12.67;;
1412;SDS011;701;52.526;13.408;2023-04-08T01:10:24;31.77;;;13.82;;
1412;SDS011;701;52.526;13.408;2023-04-08T01:12:55;28.73;;;13.40;;
1412;SDS011;701;52.526;13.408;2023-04-08T01:15:23;32.72;;;14.20;;
1412;SDS011;701;52.526;13.408;2023-04-08T01:17:54;33.05;;;14.50;;
1412;SDS011;701;52.526;13.408;2023-04-08T01:20:23;30.63;;;13.57;;
1412;SDS011;701;52.526;13.408;2023-04-08T01:25:26;34.17;;;14.25;;
1412;SDS011;701;52.526;13.408;2023-04-08T01:27:59;32.40;;;14.95;;
1412;SDS011;701;52.526;13.408;2023-04-08T01:30:29;35.97;;;15.05;;
1412;SDS011;701;52.526;13.408;2023-04-08T01:32:56;29.37;;;14.00;;
1412;SDS011;701;52.526;13.408;2023-04-08T01:35:25;34.05;;;14.85;;
1412;SDS011;701;52.526;13.408;2023-04-08T01:37:52;34.85;;;14.75;;
1412;SDS011;701;52.526;13.408;2023-04-08T01:40:21;33.72;;;14.57;;
1412;SDS011;701;52.526;13.408;2023-04-08T01:42:47;34.42;;;15.02;;
1412;SDS011;701;52.526;13.408;2023-04-08T01:45:15;36.03;;;14.90;;
1412;SDS011;701;52.526;13.408;2023-04-08T01:47:42;35.20;;;14.43;;
1412;SDS011;701;52.526;13.408;2023-04-08T01:50:11;33.90;;;15.40;;
1412;SDS011;701;52.526;13.408;2023-04-08T01:52:39;36.75;;;14.93;;
1412;SDS011;701;52.526;13.408;2023-04-08T01:55:07;33.53;;;14.17;;
1412;SDS011;701;52.526;13.408;2023-04-08T01:57:34;37.35;;;15.05;;
1412;SDS011;701;52.526;13.408;2023-04-08T02:00:05;33.55;;;14.75;;
1412;SDS011;701;52.526;13.408;2023-04-08T02:02:46;35.30;;;14.63;;
1412;SDS011;701;52.526;13.408;2023-04-08T02:05:13;36.22;;;15.32;;
1412;SDS011;701;52.526;13.408;2023-04-08T02:07:40;36.30;;;15.83;;
1412;SDS011;701;52.526;13.408;2023-04-08T02:10:05;36.92;;;14.68;;
1412;SDS011;701;52.526;13.408;2023-04-08T02:12:32;33.33;;;15.15;;
1412;SDS011;701;52.526;13.408;2023-04-08T02:14:58;38.50;;;15.23;;
1412;SDS011;701;52.526;13.408;2023-04-08T02:25:24;35.22;;;14.70;;
1412;SDS011;701;52.526;13.408;2023-04-08T02:27:51;34.50;;;14.65;;
1412;SDS011;701;52.526;13.408;2023-04-08T02:30:18;35.23;;;15.50;;
1412;SDS011;701;52.526;13.408;2023-04-08T02:32:46;38.47;;;14.93;;
1412;SDS011;701;52.526;13.408;2023-04-08T02:35:13;36.53;;;15.40;;
1412;SDS011;701;52.526;13.408;2023-04-08T02:37:40;36.38;;;15.82;;
1412;SDS011;701;52.526;13.408;2023-04-08T02:40:22;36.15;;;15.68;;
1412;SDS011;701;52.526;13.408;2023-04-08T02:42:49;34.17;;;14.63;;
1412;SDS011;701;52.526;13.408;2023-04-08T02:45:16;37.08;;;15.15;;
1412;SDS011;701;52.526;13.408;2023-04-08T02:47:42;35.30;;;15.43;;
1412;SDS011;701;52.526;13.408;2023-04-08T02:50:08;40.92;;;15.68;;
1412;SDS011;701;52.526;13.408;2023-04-08T02:52:35;39.50;;;16.13;;
1412;SDS011;701;52.526;13.408;2023-04-08T02:55:00;36.17;;;15.15;;
1412;SDS011;701;52.526;13.408;2023-04-08T02:57:26;30.93;;;14.13;;
1412;SDS011;701;52.526;13.408;2023-04-08T02:59:52;37.60;;;16.45;;
1412;SDS011;701;52.526;13.408;2023-04-08T03:02:18;36.30;;;15.88;;
1412;SDS011;701;52.526;13.408;2023-04-08T03:04:43;34.37;;;14.63;;
1412;SDS011;701;52.526;13.408;2023-04-08T03:07:09;36.00;;;15.13;;
1412;SDS011;701;52.526;13.408;2023-04-08T03:09:35;34.33;;;14.48;;
1412;SDS011;701;52.526;13.408;2023-04-08T03:12:00;37.20;;;15.37;;
1412;SDS011;701;52.526;13.408;2023-04-08T03:14:26;43.15;;;16.58;;
1412;SDS011;701;52.526;13.408;2023-04-08T03:16:53;36.75;;;15.32;;
1412;SDS011;701;52.526;13.408;2023-04-08T03:19:18;43.37;;;15.37;;
1412;SDS011;701;52.526;13.408;2023-04-08T03:21:44;40.65;;;16.83;;
1412;SDS011;701;52.526;13.408;2023-04-08T03:24:10;33.20;;;14.93;;
1412;SDS011;701;52.526;13.408;2023-04-08T03:26:35;36.67;;;15.90;;
1412;SDS011;701;52.526;13.408;2023-04-08T03:29:01;39.83;;;15.83;;
1412;SDS011;701;52.526;13.408;2023-04-08T03:31:27;40.88;;;16.13;;
1412;SDS011;701;52.526;13.408;2023-04-08T03:33:52;44.53;;;16.63;;
1412;SDS011;701;52.526;13.408;2023-04-08T03:36:18;40.88;;;17.02;;
1412;SDS011;701;52.526;13.408;2023-04-08T03:38:44;39.43;;;16.17;;
1412;SDS011;701;52.526;13.408;2023-04-08T03:41:10;44.42;;;16.15;;
1412;SDS011;701;52.526;13.408;2023-04-08T03:43:36;39.03;;;15.43;;
1412;SDS011;701;52.526;13.408;2023-04-08T03:46:01;37.93;;;15.83;;
1412;SDS011;701;52.526;13.408;2023-04-08T03:48:27;41.28;;;16.67;;
1412;SDS011;701;52.526;13.408;2023-04-08T03:50:53;44.40;;;16.85;;
1412;SDS011;701;52.526;13.408;2023-04-08T03:53:18;43.43;;;16.50;;
1412;SDS011;701;52.526;13.408;2023-04-08T03:55:44;42.75;;;16.80;;
1412;SDS011;701;52.526;13.408;2023-04-08T03:58:10;41.90;;;16.90;;
1412;SDS011;701;52.526;13.408;2023-04-08T04:00:35;40.67;;;16.67;;
1412;SDS011;701;52.526;13.408;2023-04-08T04:03:01;43.83;;;17.70;;
1412;SDS011;701;52.526;13.408;2023-04-08T04:05:27;47.00;;;17.63;;
1412;SDS011;701;52.526;13.408;2023-04-08T04:07:53;45.10;;;18.40;;
1412;SDS011;701;52.526;13.408;2023-04-08T04:10:19;39.88;;;17.33;;
1412;SDS011;701;52.526;13.408;2023-04-08T04:12:45;43.30;;;17.00;;
1412;SDS011;701;52.526;13.408;2023-04-08T04:15:11;49.88;;;17.45;;
1412;SDS011;701;52.526;13.408;2023-04-08T04:17:37;39.92;;;16.58;;
1412;SDS011;701;52.526;13.408;2023-04-08T04:20:06;40.17;;;16.33;;
1412;SDS011;701;52.526;13.408;2023-04-08T04:22:32;45.50;;;17.85;;
1412;SDS011;701;52.526;13.408;2023-04-08T04:24:58;43.60;;;17.50;;
1412;SDS011;701;52.526;13.408;2023-04-08T04:27:23;43.40;;;18.67;;
1412;SDS011;701;52.526;13.408;2023-04-08T04:29:49;42.38;;;17.63;;
1412;SDS011;701;52.526;13.408;2023-04-08T04:32:15;41.90;;;17.30;;
1412;SDS011;701;52.526;13.408;2023-04-08T04:34:41;42.13;;;16.60;;
1412;SDS011;701;52.526;13.408;2023-04-08T04:37:06;42.30;;;17.47;;
1412;SDS011;701;52.526;13.408;2023-04-08T04:39:32;41.55;;;17.05;;
1412;SDS011;701;52.526;13.408;2023-04-08T04:41:58;47.07;;;18.37;;
1412;SDS011;701;52.526;13.408;2023-04-08T04:44:23;43.22;;;18.30;;
1412;SDS011;701;52.526;13.408;2023-04-08T04:46:49;41.17;;;16.93;;
1412;SDS011;701;52.526;13.408;2023-04-08T04:49:15;42.97;;;17.83;;
1412;SDS011;701;52.526;13.408;2023-04-08T04:51:41;43.00;;;17.80;;
1412;SDS011;701;52.526;13.408;2023-04-08T04:54:06;41.35;;;16.77;;
1412;SDS011;701;52.526;13.408;2023-04-08T04:56:32;42.43;;;17.33;;
1412;SDS011;701;52.526;13.408;2023-04-08T04:58:58;41.05;;;18.20;;
1412;SDS011;701;52.526;13.408;2023-04-08T05:01:24;43.72;;;17.60;;
1412;SDS011;701;52.526;13.408;2023-04-08T05:03:50;38.73;;;17.00;;
1412;SDS011;701;52.526;13.408;2023-04-08T05:06:15;46.30;;;18.15;;
1412;SDS011;701;52.526;13.408;2023-04-08T05:08:41;46.07;;;18.33;;
1412;SDS011;701;52.526;13.408;2023-04-08T05:11:10;40.85;;;17.48;;
1412;SDS011;701;52.526;13.408;2023-04-08T05:13:36;41.67;;;17.20;;
1412;SDS011;701;52.526;13.408;2023-04-08T05:16:02;45.20;;;17.43;;
1412;SDS011;701;52.526;13.408;2023-04-08T05:18:28;42.83;;;18.50;;
1412;SDS011;701;52.526;13.408;2023-04-08T05:20:54;44.55;;;19.23;;
1412;SDS011;701;52.526;13.408;2023-04-08T05:23:19;49.00;;;18.47;;
1412;SDS011;701;52.526;13.408;2023-04-08T05:25:45;44.33;;;17.67;;
1412;SDS011;701;52.526;13.408;2023-04-08T05:28:11;43.47;;;17.13;;
1412;SDS011;701;52.526;13.408;2023-04-08T05:30:37;47.25;;;19.55;;
1412;SDS011;701;52.526;13.408;2023-04-08T05:33:02;46.97;;;19.07;;
1412;SDS011;701;52.526;13.408;2023-04-08T05:35:28;48.30;;;19.13;;
1412;SDS011;701;52.526;13.408;2023-04-08T05:37:54;51.57;;;19.40;;
1412;SDS011;701;52.526;13.408;2023-04-08T05:40:20;44.03;;;19.20;;
1412;SDS011;701;52.526;13.408;2023-04-08T05:42:46;46.10;;;19.33;;
1412;SDS011;701;52.526;13.408;2023-04-08T05:45:11;43.58;;;17.38;;
1412;SDS011;701;52.526;13.408;2023-04-08T05:47:37;49.05;;;19.98;;
1412;SDS011;701;52.526;13.408;2023-04-08T05:50:03;47.30;;;18.73;;
1412;SDS011;701;52.526;13.408;2023-04-08T05:52:29;47.55;;;19.02;;
1412;SDS011;701;52.526;13.408;2023-04-08T05:54:55;50.00;;;19.60;;
1412;SDS011;701;52.526;13.408;2023-04-08T05:57:21;45.28;;;17.50;;
1412;SDS011;701;52.526;13.408;2023-04-08T05:59:46;44.13;;;18.17;;
1412;SDS011;701;52.526;13.408;2023-04-08T06:02:12;47.15;;;19.67;;
1412;SDS011;701;52.526;13.408;2023-04-08T06:04:38;49.85;;;20.27;;
1412;SDS011;701;52.526;13.408;2023-04-08T06:07:03;53.25;;;20.13;;
1412;SDS011;701;52.526;13.408;2023-04-08T06:09:33;46.17;;;19.13;;
1412;SDS011;701;52.526;13.408;2023-04-08T06:12:00;51.88;;;20.70;;
1412;SDS011;701;52.526;13.408;2023-04-08T06:14:26;48.53;;;19.23;;
1412;SDS011;701;52.526;13.408;2023-04-08T06:16:52;48.78;;;20.20;;
1412;SDS011;701;52.526;13.408;2023-04-08T06:19:21;50.95;;;20.48;;
1412;SDS011;701;52.526;13.408;2023-04-08T06:21:49;46.37;;;19.33;;
1412;SDS011;701;52.526;13.408;2023-04-08T06:24:16;56.20;;;19.67;;
1412;SDS011;701;52.526;13.408;2023-04-08T06:26:42;51.97;;;21.08;;
1412;SDS011;701;52.526;13.408;2023-04-08T06:29:09;47.08;;;19.58;;
1412;SDS011;701;52.526;13.408;2023-04-08T06:31:36;48.88;;;18.88;;
1412;SDS011;701;52.526;13.408;2023-04-08T06:34:03;52.30;;;20.67;;
1412;SDS011;701;52.526;13.408;2023-04-08T06:36:29;48.08;;;20.02;;
1412;SDS011;701;52.526;13.408;2023-04-08T06:38:56;50.53;;;20.45;;
1412;SDS011;701;52.526;13.408;2023-04-08T06:41:23;51.90;;;20.38;;
1412;SDS011;701;52.526;13.408;2023-04-08T06:43:49;50.88;;;20.27;;
1412;SDS011;701;52.526;13.408;2023-04-08T06:46:16;50.57;;;19.00;;
1412;SDS011;701;52.526;13.408;2023-04-08T06:48:43;48.90;;;20.35;;
1412;SDS011;701;52.526;13.408;2023-04-08T06:51:10;48.22;;;19.77;;
1412;SDS011;701;52.526;13.408;2023-04-08T06:53:36;43.88;;;18.63;;
1412;SDS011;701;52.526;13.408;2023-04-08T06:56:03;46.47;;;19.33;;
1412;SDS011;701;52.526;13.408;2023-04-08T06:58:30;45.75;;;19.13;;
1412;SDS011;701;52.526;13.408;2023-04-08T07:00:57;44.20;;;18.88;;
1412;SDS011;701;52.526;13.408;2023-04-08T07:03:25;50.92;;;19.35;;
1412;SDS011;701;52.526;13.408;2023-04-08T07:05:52;50.35;;;19.58;;
1412;SDS011;701;52.526;13.408;2023-04-08T07:08:18;53.22;;;20.70;;
1412;SDS011;701;52.526;13.408;2023-04-08T07:10:45;47.97;;;19.65;;
1412;SDS011;701;52.526;13.408;2023-04-08T07:13:12;48.35;;;19.90;;
1412;SDS011;701;52.526;13.408;2023-04-08T07:15:39;47.17;;;19.08;;
1412;SDS011;701;52.526;13.408;2023-04-08T07:18:06;42.85;;;18.23;;
1412;SDS011;701;52.526;13.408;2023-04-08T07:20:33;50.45;;;19.70;;
1412;SDS011;701;52.526;13.408;2023-04-08T07:23:03;49.53;;;20.13;;
1412;SDS011;701;52.526;13.408;2023-04-08T07:25:30;42.75;;;19.35;;
1412;SDS011;701;52.526;13.408;2023-04-08T07:27:59;48.25;;;19.60;;
1412;SDS011;701;52.526;13.408;2023-04-08T07:30:25;46.67;;;20.15;;
1412;SDS011;701;52.526;13.408;2023-04-08T07:32:51;44.63;;;18.07;;
1412;SDS011;701;52.526;13.408;2023-04-08T07:35:19;41.97;;;18.25;;
1412;SDS011;701;52.526;13.408;2023-04-08T07:37:48;43.53;;;19.02;;
1412;SDS011;701;52.526;13.408;2023-04-08T07:40:17;44.05;;;20.05;;
1412;SDS011;701;52.526;13.408;2023-04-08T07:42:43;41.45;;;17.85;;
1412;SDS011;701;52.526;13.408;2023-04-08T07:45:09;41.80;;;18.95;;
1412;SDS011;701;52.526;13.408;2023-04-08T07:47:35;46.65;;;18.60;;
1412;SDS011;701;52.526;13.408;2023-04-08T07:50:01;40.50;;;18.33;;
1412;SDS011;701;52.526;13.408;2023-04-08T07:52:29;43.33;;;19.45;;
1412;SDS011;701;52.526;13.408;2023-04-08T07:54:55;43.70;;;19.00;;
1412;SDS011;701;52.526;13.408;2023-04-08T07:57:21;39.65;;;17.98;;
1412;SDS011;701;52.526;13.408;2023-04-08T07:59:46;43.77;;;19.20;;
1412;SDS011;701;52.526;13.408;2023-04-08T08:02:12;39.88;;;17.70;;
1412;SDS011;701;52.526;13.408;2023-04-08T08:04:38;41.08;;;18.00;;
1412;SDS011;701;52.526;13.408;2023-04-08T08:07:04;43.13;;;19.17;;
1412;SDS011;701;52.526;13.408;2023-04-08T08:09:29;40.65;;;18.80;;
1412;SDS011;701;52.526;13.408;2023-04-08T08:11:55;44.87;;;19.60;;
1412;SDS011;701;52.526;13.408;2023-04-08T08:14:21;45.28;;;19.42;;
1412;SDS011;701;52.526;13.408;2023-04-08T08:16:47;42.60;;;19.07;;
1412;SDS011;701;52.526;13.408;2023-04-08T08:19:13;42.38;;;18.60;;
1412;SDS011;701;52.526;13.408;2023-04-08T08:21:39;38.38;;;18.50;;
1412;SDS011;701;52.526;13.408;2023-04-08T08:24:06;41.43;;;18.40;;
1412;SDS011;701;52.526;13.408;2023-04-08T08:26:35;44.15;;;17.98;;
1412;SDS011;701;52.526;13.408;2023-04-08T08:29:01;42.03;;;18.52;;
1412;SDS011;701;52.526;13.408;2023-04-08T08:31:27;42.90;;;17.80;;
1412;SDS011;701;52.526;13.408;2023-04-08T08:33:54;36.30;;;17.97;;
1412;SDS011;701;52.526;13.408;2023-04-08T08:36:20;39.47;;;18.25;;
1412;SDS011;701;52.526;13.408;2023-04-08T08:38:46;46.55;;;18.80;;
1412;SDS011;701;52.526;13.408;2023-04-08T08:41:13;42.80;;;18.80;;
1412;SDS011;701;52.526;13.408;2023-04-08T08:43:39;42.22;;;18.10;;
1412;SDS011;701;52.526;13.408;2023-04-08T08:46:07;43.10;;;17.03;;
1412;SDS011;701;52.526;13.408;2023-04-08T08:48:36;39.13;;;17.98;;
1412;SDS011;701;52.526;13.408;2023-04-08T08:51:08;42.28;;;18.45;;
1412;SDS011;701;52.526;13.408;2023-04-08T08:53:35;43.50;;;18.13;;
1412;SDS011;701;52.526;13.408;2023-04-08T08:56:02;39.88;;;18.15;;
1412;SDS011;701;52.526;13.408;2023-04-08T08:58:29;41.10;;;18.97;;
1412;SDS011;701;52.526;13.408;2023-04-08T09:00:55;38.60;;;17.83;;
1412;SDS011;701;52.526;13.408;2023-04-08T09:03:25;41.88;;;18.70;;
1412;SDS011;701;52.526;13.408;2023-04-08T09:06:00;37.45;;;17.45;;
1412;SDS011;701;52.526;13.408;2023-04-08T09:11:10;40.10;;;17.70;;
1412;SDS011;701;52.526;13.408;2023-04-08T09:13:39;43.40;;;19.33;;
1412;SDS011;701;52.526;13.408;2023-04-08T09:16:07;32.30;;;17.10;;
1412;SDS011;701;52.526;13.408;2023-04-08T09:18:35;38.47;;;18.27;;
1412;SDS011;701;52.526;13.408;2023-04-08T09:21:03;37.70;;;18.00;;
1412;SDS011;701;52.526;13.408;2023-04-08T09:23:38;35.30;;;17.97;;
1412;SDS011;701;52.526;13.408;2023-04-08T09:26:10;33.92;;;16.25;;
1412;SDS011;701;52.526;13.408;2023-04-08T09:28:37;37.22;;;17.67;;
1412;SDS011;701;52.526;13.408;2023-04-08T09:31:21;33.70;;;16.33;;
1412;SDS011;701;52.526;13.408;2023-04-08T09:33:49;36.13;;;16.75;;
1412;SDS011;701;52.526;13.408;2023-04-08T09:36:17;35.43;;;16.90;;
1412;SDS011;701;52.526;13.408;2023-04-08T09:38:43;34.95;;;17.30;;
1412;SDS011;701;52.526;13.408;2023-04-08T09:41:16;35.42;;;17.17;;
1412;SDS011;701;52.526;13.408;2023-04-08T09:43:54;33.88;;;16.52;;
1412;SDS011;701;52.526;13.408;2023-04-08T10:00:32;36.10;;;17.08;;
1412;SDS011;701;52.526;13.408;2023-04-08T10:06:01;36.13;;;17.58;;
1412;SDS011;701;52.526;13.408;2023-04-08T10:08:28;34.83;;;17.15;;
1412;SDS011;701;52.526;13.408;2023-04-08T10:10:55;34.40;;;17.05;;
1412;SDS011;701;52.526;13.408;2023-04-08T10:13:22;35.35;;;17.20;;
1412;SDS011;701;52.526;13.408;2023-04-08T10:15:48;34.13;;;16.97;;
1412;SDS011;701;52.526;13.408;2023-04-08T10:20:45;35.10;;;17.58;;
1412;SDS011;701;52.526;13.408;2023-04-08T10:23:16;33.72;;;16.88;;
1412;SDS011;701;52.526;13.408;2023-04-08T10:28:33;33.42;;;17.02;;
1412;SDS011;701;52.526;13.408;2023-04-08T10:30:58;29.38;;;15.60;;
1412;SDS011;701;52.526;13.408;2023-04-08T10:33:31;33.08;;;16.52;;
1412;SDS011;701;52.526;13.408;2023-04-08T10:35:59;30.10;;;16.53;;
1412;SDS011;701;52.526;13.408;2023-04-08T10:38:26;31.08;;;16.45;;
1412;SDS011;701;52.526;13.408;2023-04-08T10:40:53;28.10;;;15.45;;
1412;SDS011;701;52.526;13.408;2023-04-08T10:43:19;28.52;;;15.77;;
1412;SDS011;701;52.526;13.408;2023-04-08T10:45:45;26.87;;;14.97;;
1412;SDS011;701;52.526;13.408;2023-04-08T10:48:21;29.73;;;14.43;;
1412;SDS011;701;52.526;13.408;2023-04-08T10:50:58;26.30;;;14.48;;
1412;SDS011;701;52.526;13.408;2023-04-08T10:53:26;26.92;;;14.63;;
1412;SDS011;701;52.526;13.408;2023-04-08T10:56:06;28.20;;;14.87;;
1412;SDS011;701;52.526;13.408;2023-04-08T10:58:52;26.42;;;14.25;;
1412;SDS011;701;52.526;13.408;2023-04-08T11:01:23;25.45;;;14.23;;
1412;SDS011;701;52.526;13.408;2023-04-08T11:03:49;27.63;;;14.90;;
1412;SDS011;701;52.526;13.408;2023-04-08T11:06:15;27.83;;;14.87;;
1412;SDS011;701;52.526;13.408;2023-04-08T11:08:42;28.35;;;13.90;;
1412;SDS011;701;52.526;13.408;2023-04-08T11:11:11;27.02;;;14.23;;
1412;SDS011;701;52.526;13.408;2023-04-08T11:13:41;23.95;;;13.90;;
1412;SDS011;701;52.526;13.408;2023-04-08T11:16:07;22.30;;;13.40;;
1412;SDS011;701;52.526;13.408;2023-04-08T11:18:34;26.50;;;14.77;;
1412;SDS011;701;52.526;13.408;2023-04-08T11:21:01;23.92;;;13.20;;
1412;SDS011;701;52.526;13.408;2023-04-08T11:23:28;23.73;;;13.43;;
1412;SDS011;701;52.526;13.408;2023-04-08T11:25:53;26.55;;;14.88;;
1412;SDS011;701;52.526;13.408;2023-04-08T11:28:20;26.07;;;13.87;;
1412;SDS011;701;52.526;13.408;2023-04-08T11:30:47;26.95;;;14.25;;
1412;SDS011;701;52.526;13.408;2023-04-08T11:33:13;26.27;;;13.93;;
1412;SDS011;701;52.526;13.408;2023-04-08T11:35:39;23.93;;;13.80;;
1412;SDS011;701;52.526;13.408;2023-04-08T11:38:06;24.02;;;13.82;;
1412;SDS011;701;52.526;13.408;2023-04-08T11:40:33;24.23;;;13.10;;
1412;SDS011;701;52.526;13.408;2023-04-08T11:42:59;22.52;;;13.35;;
1412;SDS011;701;52.526;13.408;2023-04-08T11:45:37;26.33;;;14.20;;
1412;SDS011;701;52.526;13.408;2023-04-08T11:48:08;21.67;;;12.35;;
1412;SDS011;701;52.526;13.408;2023-04-08T11:50:38;21.50;;;12.02;;
1412;SDS011;701;52.526;13.408;2023-04-08T11:53:17;23.65;;;12.60;;
1412;SDS011;701;52.526;13.408;2023-04-08T11:55:44;24.90;;;12.90;;
1412;SDS011;701;52.526;13.408;2023-04-08T11:58:10;24.17;;;14.00;;
1412;SDS011;701;52.526;13.408;2023-04-08T12:00:36;24.02;;;13.80;;
1412;SDS011;701;52.526;13.408;2023-04-08T12:03:02;25.60;;;14.63;;
1412;SDS011;701;52.526;13.408;2023-04-08T12:05:28;24.55;;;13.77;;
1412;SDS011;701;52.526;13.408;2023-04-08T12:07:54;26.97;;;13.87;;
1412;SDS011;701;52.526;13.408;2023-04-08T12:10:20;25.92;;;14.23;;
1412;SDS011;701;52.526;13.408;2023-04-08T12:12:46;26.50;;;14.18;;
1412;SDS011;701;52.526;13.408;2023-04-08T12:15:12;25.73;;;14.00;;
1412;SDS011;701;52.526;13.408;2023-04-08T12:17:38;23.95;;;12.95;;
1412;SDS011;701;52.526;13.408;2023-04-08T12:20:06;22.03;;;12.63;;
1412;SDS011;701;52.526;13.408;2023-04-08T12:22:32;18.35;;;10.77;;
1412;SDS011;701;52.526;13.408;2023-04-08T12:24:58;20.05;;;11.50;;
1412;SDS011;701;52.526;13.408;2023-04-08T12:27:24;20.17;;;11.27;;
1412;SDS011;701;52.526;13.408;2023-04-08T12:29:50;18.42;;;10.77;;
1412;SDS011;701;52.526;13.408;2023-04-08T12:32:17;15.85;;;10.20;;
1412;SDS011;701;52.526;13.408;2023-04-08T12:34:43;17.00;;;10.55;;
1412;SDS011;701;52.526;13.408;2023-04-08T12:37:09;17.75;;;10.32;;
1412;SDS011;701;52.526;13.408;2023-04-08T12:39:35;16.07;;;9.33;;
1412;SDS011;701;52.526;13.408;2023-04-08T12:42:01;15.45;;;9.63;;
1412;SDS011;701;52.526;13.408;2023-04-08T12:44:27;15.07;;;9.27;;
1412;SDS011;701;52.526;13.408;2023-04-08T12:46:52;14.67;;;9.13;;
1412;SDS011;701;52.526;13.408;2023-04-08T12:49:18;15.70;;;9.05;;
1412;SDS011;701;52.526;13.408;2023-04-08T12:51:44;18.60;;;9.20;;
1412;SDS011;701;52.526;13.408;2023-04-08T12:54:10;17.25;;;9.07;;
1412;SDS011;701;52.526;13.408;2023-04-08T12:56:36;16.88;;;9.35;;
1412;SDS011;701;52.526;13.408;2023-04-08T12:59:03;13.57;;;8.23;;
1412;SDS011;701;52.526;13.408;2023-04-08T13:01:29;13.40;;;8.47;;
1412;SDS011;701;52.526;13.408;2023-04-08T13:03:55;16.85;;;10.23;;
1412;SDS011;701;52.526;13.408;2023-04-08T13:06:20;15.90;;;9.77;;
1412;SDS011;701;52.526;13.408;2023-04-08T13:08:46;15.70;;;8.70;;
1412;SDS011;701;52.526;13.408;2023-04-08T13:11:12;15.88;;;9.45;;
1412;SDS011;701;52.526;13.408;2023-04-08T13:13:38;16.63;;;10.43;;
1412;SDS011;701;52.526;13.408;2023-04-08T13:16:04;16.60;;;9.93;;
1412;SDS011;701;52.526;13.408;2023-04-08T13:18:30;16.63;;;10.20;;
1412;SDS011;701;52.526;13.408;2023-04-08T13:20:56;17.00;;;10.25;;
1412;SDS011;701;52.526;13.408;2023-04-08T13:23:22;16.57;;;8.80;;
1412;SDS011;701;52.526;13.408;2023-04-08T13:25:48;14.45;;;9.15;;
1412;SDS011;701;52.526;13.408;2023-04-08T13:28:14;15.27;;;9.13;;
1412;SDS011;701;52.526;13.408;2023-04-08T13:30:40;14.93;;;9.17;;
1412;SDS011;701;52.526;13.408;2023-04-08T13:33:06;15.85;;;8.60;;
1412;SDS011;701;52.526;13.408;2023-04-08T13:35:32;15.23;;;8.13;;
1412;SDS011;701;52.526;13.408;2023-04-08T13:37:58;14.50;;;8.90;;
1412;SDS011;701;52.526;13.408;2023-04-08T13:40:23;14.67;;;8.90;;
1412;SDS011;701;52.526;13.408;2023-04-08T13:42:49;14.95;;;8.88;;
1412;SDS011;701;52.526;13.408;2023-04-08T13:45:15;12.85;;;8.52;;
1412;SDS011;701;52.526;13.408;2023-04-08T13:47:41;16.27;;;8.67;;
1412;SDS011;701;52.526;13.408;2023-04-08T13:50:07;13.82;;;8.38;;
1412;SDS011;701;52.526;13.408;2023-04-08T13:52:33;13.50;;;8.43;;
1412;SDS011;701;52.526;13.408;2023-04-08T13:54:59;12.43;;;7.67;;
1412;SDS011;701;52.526;13.408;2023-04-08T13:57:25;13.23;;;8.60;;
1412;SDS011;701;52.526;13.408;2023-04-08T13:59:50;12.38;;;7.35;;
1412;SDS011;701;52.526;13.408;2023-04-08T14:02:16;13.20;;;8.10;;
1412;SDS011;701;52.526;13.408;2023-04-08T14:04:42;15.27;;;8.43;;
1412;SDS011;701;52.526;13.408;2023-04-08T14:07:10;15.02;;;9.05;;
1412;SDS011;701;52.526;13.408;2023-04-08T14:09:36;16.03;;;9.63;;
1412;SDS011;701;52.526;13.408;2023-04-08T14:12:03;15.68;;;9.80;;
1412;SDS011;701;52.526;13.408;2023-04-08T14:14:28;15.00;;;9.20;;
1412;SDS011;701;52.526;13.408;2023-04-08T14:16:54;15.03;;;9.00;;
1412;SDS011;701;52.526;13.408;2023-04-08T14:19:21;13.90;;;8.40;;
1412;SDS011;701;52.526;13.408;2023-04-08T14:21:46;15.18;;;9.23;;
1412;SDS011;701;52.526;13.408;2023-04-08T14:24:12;14.30;;;9.00;;
1412;SDS011;701;52.526;13.408;2023-04-08T14:26:39;15.48;;;8.98;;
1412;SDS011;701;52.526;13.408;2023-04-08T14:29:32;14.98;;;9.23;;
1412;SDS011;701;52.526;13.408;2023-04-08T14:32:05;15.27;;;9.80;;
1412;SDS011;701;52.526;13.408;2023-04-08T14:34:38;16.03;;;9.30;;
1412;SDS011;701;52.526;13.408;2023-04-08T14:37:55;13.50;;;8.15;;
1412;SDS011;701;52.526;13.408;2023-04-08T14:40:21;13.32;;;8.27;;
1412;SDS011;701;52.526;13.408;2023-04-08T14:42:47;13.40;;;7.97;;
1412;SDS011;701;52.526;13.408;2023-04-08T14:45:14;13.40;;;7.88;;
1412;SDS011;701;52.526;13.408;2023-04-08T14:47:40;13.48;;;8.50;;
1412;SDS011;701;52.526;13.408;2023-04-08T14:50:06;13.43;;;8.27;;
1412;SDS011;701;52.526;13.408;2023-04-08T14:52:32;15.27;;;7.87;;
1412;SDS011;701;52.526;13.408;2023-04-08T14:54:58;14.00;;;8.27;;
1412;SDS011;701;52.526;13.408;2023-04-08T14:57:24;13.73;;;8.52;;
1412;SDS011;701;52.526;13.408;2023-04-08T14:59:49;14.03;;;8.30;;
1412;SDS011;701;52.526;13.408;2023-04-08T15:02:16;16.15;;;9.02;;
1412;SDS011;701;52.526;13.408;2023-04-08T15:04:42;14.27;;;8.37;;
1412;SDS011;701;52.526;13.408;2023-04-08T15:07:07;13.23;;;8.48;;
1412;SDS011;701;52.526;13.408;2023-04-08T15:09:33;13.15;;;8.48;;
1412;SDS011;701;52.526;13.408;2023-04-08T15:11:59;15.10;;;9.10;;
1412;SDS011;701;52.526;13.408;2023-04-08T15:14:25;14.73;;;9.00;;
1412;SDS011;701;52.526;13.408;2023-04-08T15:16:51;15.18;;;9.20;;
1412;SDS011;701;52.526;13.408;2023-04-08T15:19:17;14.87;;;8.63;;
1412;SDS011;701;52.526;13.408;2023-04-08T15:21:44;14.90;;;9.07;;
1412;SDS011;701;52.526;13.408;2023-04-08T15:24:10;13.50;;;8.80;;
1412;SDS011;701;52.526;13.408;2023-04-08T15:26:37;14.50;;;8.20;;